This is the latest recevied weather packets stored in our database for station/object KY0TEQ-13. If no packets are shown the sender has not sent any weather packets the latest 10 day(s).
| Time | Temp. | Humidity | Pressure | Rain* | Wind** | Luminosity | Snow |
|---|---|---|---|---|---|---|---|
| 1787988650 | 19.44° C | 47% | 1311.2 hPa | 0 mm | - | 0 W/m² | - |
| 1787988347 | 20° C | 45% | 1311.3 hPa | 0 mm | - | 0 W/m² | - |
| 1787988047 | 20.56° C | 45% | 1311.2 hPa | 0 mm | - | 0 W/m² | - |
| 1787987742 | 20° C | 44% | 1311.3 hPa | 0 mm | - | 0 W/m² | - |
| 1787987442 | 20.56° C | 44% | 1311.4 hPa | 0 mm | - | 0 W/m² | - |
| 1787987137 | 21.11° C | 42% | 1311.3 hPa | 0 mm | - | 0 W/m² | - |
| 1787986832 | 21.11° C | 41% | 1311.2 hPa | 0 mm | - | 0 W/m² | - |
| 1787986531 | 20.56° C | 42% | 1311.3 hPa | 0 mm | - | 0 W/m² | - |
| 1787986226 | 20.56° C | 44% | 1311.4 hPa | 0 mm | - | 0 W/m² | - |
| 1787985920 | 21.11° C | 43% | 1311.7 hPa | 0 mm | - | 0 W/m² | - |
| 1787985620 | 20.56° C | 46% | 1311.8 hPa | 0 mm | - | 0 W/m² | - |
| 1787985315 | 20° C | 49% | 1311.6 hPa | 0 mm | - | 0 W/m² | - |
| 1787985009 | 19.44° C | 53% | 1311.9 hPa | 0 mm | - | 0 W/m² | - |
| 1787984703 | 20.56° C | 48% | 1312.4 hPa | 0 mm | - | 0 W/m² | - |
| 1787984398 | 20.56° C | 46% | 1311.8 hPa | 0 mm | - | 0 W/m² | - |
| 1787984097 | 21.11° C | 42% | 1311.7 hPa | 0 mm | - | 0 W/m² | - |
| 1787983792 | 21.11° C | 40% | 1311.4 hPa | 0 mm | - | 0 W/m² | - |
| 1787983492 | 21.67° C | 39% | 1311.1 hPa | 0 mm | - | 0 W/m² | - |
| 1787983187 | 21.67° C | 37% | 1311.4 hPa | 0 mm | - | 0 W/m² | - |
| 1787982882 | 21.67° C | 38% | 1311.3 hPa | 0 mm | - | 0 W/m² | - |
| 1787982577 | 21.67° C | 38% | 1311.4 hPa | 0 mm | - | 0 W/m² | - |
| 1787982273 | 21.67° C | 38% | 1311.2 hPa | 0 mm | - | 0 W/m² | - |
| 1787981969 | 22.22° C | 36% | 1311.4 hPa | 0 mm | - | 0 W/m² | - |
| 1787981664 | 22.78° C | 35% | 1311.3 hPa | 0 mm | - | 0 W/m² | - |
| 1787981363 | 22.78° C | 34% | 1311.6 hPa | 0 mm | - | 0 W/m² | - |
* Rain latest hour (hover to see other rain measurements)
** Current wind speed in m/s (hover to see current wind gust speed)